KPVW/PVW METAR and TAF weather

Enter ICAO airport designator
Station Type Date Time Source
KPVW METAR 2019/06/18 15:15 UTC NOAA

KPVW 181515Z AUTO 26006KT 10SM CLR 21/15 A3004 RMK AO2 T02130147


Station Type Date Time Source
KPVW Decoded METAR 2019/06/18 15:15 UTC NOAA

Plainview, Hale County Airport, TX, United States (KPVW) 34-10-05N 101-43-02W
Jun 18, 2019 - 11:15 AM EDT / 2019.06.18 1515 UTC
Wind: from the W (260 degrees) at 7 MPH (6 KT):0
Visibility: 10 mile(s):0
Sky conditions: clear
Temperature: 70.3 F (21.3 C)
Dew Point: 58.5 F (14.7 C)
Relative Humidity: 66%
Pressure (altimeter): 30.04 in. Hg (1017 hPa)
ob: KPVW 181515Z AUTO 26006KT 10SM CLR 21/15 A3004 RMK AO2 T02130147
cycle: 15

Station Type Date Time Source
KPVW TAF 2019/06/18 12:21 UTC NOAA

TAF KPVW 181120Z 1812/1912 21011KT P6SM FEW025 FEW250

Example: see airport list